Time;durP1;ratioP1;P1;durP2;ratioP2;P2;SDS_P1;SDS_P2;PMS_P1;PMS_P2;Temp;Humidity;BMP_temperature;BMP_pressure;BME280_temperature;BME280_humidity;BME280_pressure;Samples;Min_cycle;Max_cycle;Signal;HPM_P1;HPM_P2
2022/11/08 00:01:57;;;;;;;19.35;10.27;;;6.50;99.90;;;;;;5041670;28;20580;-89
2022/11/08 00:04:23;;;;;;;26.13;11.63;;;6.70;99.90;;;;;;5041732;28;20056;-89
2022/11/08 00:15:04;;;;;;;23.20;12.55;;;7.40;99.90;;;;;;5030206;28;20033;-89
2022/11/08 00:17:30;;;;;;;25.13;12.43;;;7.50;99.90;;;;;;5027482;28;20108;-89
2022/11/08 00:19:56;;;;;;;24.17;12.23;;;7.50;99.90;;;;;;5044446;28;20029;-89
2022/11/08 00:22:23;;;;;;;27.20;12.77;;;7.50;99.90;;;;;;5028091;28;20213;-90
2022/11/08 00:24:49;;;;;;;27.30;12.73;;;7.40;99.90;;;;;;5044104;28;20030;-89
2022/11/08 00:27:20;;;;;;;24.27;12.15;;;7.30;99.90;;;;;;5028010;28;20032;-89
2022/11/08 00:29:46;;;;;;;25.80;12.73;;;7.20;99.90;;;;;;5026549;28;20025;-89
2022/11/08 00:36:01;;;;;;;33.72;13.35;;;7.10;99.90;;;;;;5035832;28;20405;-89
2022/11/08 00:38:27;;;;;;;24.88;12.07;;;7.10;99.90;;;;;;5024568;28;20120;-89
2022/11/08 00:40:52;;;;;;;29.70;13.80;;;7.10;99.90;;;;;;5049214;28;20067;-89
2022/11/08 00:43:18;;;;;;;21.23;12.40;;;7.10;99.90;;;;;;5024459;28;20049;-89
2022/11/08 00:45:44;;;;;;;27.48;12.40;;;7.10;99.90;;;;;;5042834;28;20040;-89
2022/11/08 00:48:09;;;;;;;23.45;12.55;;;7.00;99.90;;;;;;5028974;28;20021;-89
2022/11/08 00:50:39;;;;;;;24.65;11.88;;;7.00;99.90;;;;;;5040817;28;20030;-89
2022/11/08 00:53:06;;;;;;;26.27;12.55;;;7.00;99.90;;;;;;5030209;28;20083;-89
2022/11/08 00:55:32;;;;;;;28.40;12.65;;;6.90;99.90;;;;;;5022766;28;20025;-89
2022/11/08 00:57:57;;;;;;;31.73;13.30;;;7.00;99.90;;;;;;5032516;28;20362;-89
2022/11/08 01:00:23;;;;;;;23.98;12.55;;;7.00;99.90;;;;;;5025972;28;20040;-89
2022/11/08 01:03:17;;;;;;;30.77;12.98;;;7.00;99.90;;;;;;5025490;28;20160;-89
2022/11/08 01:05:36;;;;;;;27.80;13.27;;;7.00;99.90;;;;;;5043379;28;20432;-89
2022/11/08 01:08:02;;;;;;;23.40;13.10;;;7.00;99.90;;;;;;5048565;28;20310;-89
2022/11/08 01:10:28;;;;;;;19.48;12.50;;;6.90;99.90;;;;;;5046329;28;20091;-89
2022/11/08 01:12:53;;;;;;;22.63;12.95;;;6.90;99.90;;;;;;5048093;28;20067;-89
2022/11/08 01:15:19;;;;;;;30.60;13.68;;;6.80;99.90;;;;;;5031746;28;20033;-89
2022/11/08 01:17:45;;;;;;;23.98;12.73;;;6.80;99.90;;;;;;5046107;28;20037;-89
2022/11/08 01:20:11;;;;;;;23.08;12.77;;;6.90;99.90;;;;;;5051338;28;20025;-89
2022/11/08 01:23:15;;;;;;;27.23;12.05;;;6.80;99.90;;;;;;5045221;28;20033;-89
2022/11/08 01:25:43;;;;;;;27.88;12.25;;;6.80;99.90;;;;;;5028771;28;20056;-89
2022/11/08 01:28:11;;;;;;;22.55;11.60;;;6.80;99.90;;;;;;5031271;28;20035;-89
2022/11/08 01:30:38;;;;;;;28.38;13.27;;;6.80;99.90;;;;;;5030370;28;20082;-89
2022/11/08 01:33:04;;;;;;;27.73;12.25;;;6.80;99.90;;;;;;5047417;28;20039;-89
2022/11/08 01:35:31;;;;;;;21.70;11.90;;;6.80;99.90;;;;;;5031116;28;20036;-89
2022/11/08 01:37:58;;;;;;;22.70;11.43;;;6.80;99.90;;;;;;5036550;28;20029;-89
2022/11/08 01:40:25;;;;;;;28.77;11.35;;;6.90;99.90;;;;;;5030541;28;20040;-89
2022/11/08 01:42:51;;;;;;;20.83;11.27;;;6.90;99.90;;;;;;5028957;28;20099;-89
2022/11/08 01:45:54;;;;;;;21.00;11.65;;;6.90;99.90;;;;;;5049269;28;20017;-89
2022/11/08 01:48:21;;;;;;;18.60;10.45;;;6.80;99.90;;;;;;5045978;28;20087;-89
2022/11/08 01:51:10;;;;;;;24.02;11.90;;;6.80;99.90;;;;;;5028058;28;20476;-89
2022/11/08 01:53:37;;;;;;;19.38;10.88;;;6.70;99.90;;;;;;5041820;28;20485;-89
2022/11/08 01:56:03;;;;;;;17.25;9.88;;;6.60;99.90;;;;;;5032042;28;20036;-89
2022/11/08 01:58:31;;;;;;;26.00;10.32;;;6.60;99.90;;;;;;5043713;28;20555;-89
2022/11/08 02:01:00;;;;;;;22.90;11.20;;;6.60;99.90;;;;;;5043775;28;20039;-89
2022/11/08 02:03:27;;;;;;;20.05;11.35;;;6.60;99.90;;;;;;5043511;28;20045;-89
2022/11/08 02:05:53;;;;;;;21.02;11.45;;;6.60;99.90;;;;;;5047060;28;20028;-89
2022/11/08 02:08:33;;;;;;;27.85;10.23;;;6.70;99.90;;;;;;5030458;28;20033;-89
2022/11/08 02:11:00;;;;;;;24.83;9.63;;;6.70;99.90;;;;;;5041519;28;20017;-89
2022/11/08 02:13:28;;;;;;;23.58;9.00;;;6.70;99.90;;;;;;5030228;28;20060;-89
2022/11/08 02:15:54;;;;;;;16.08;9.07;;;6.70;99.90;;;;;;5046251;28;20051;-89
2022/11/08 02:18:22;;;;;;;19.77;8.80;;;6.70;99.90;;;;;;5041465;28;20025;-88
2022/11/08 02:20:48;;;;;;;20.83;9.43;;;6.70;99.90;;;;;;5033942;28;20087;-89
2022/11/08 02:23:27;;;;;;;21.83;9.02;;;6.70;99.90;;;;;;5029394;28;20465;-89
2022/11/08 02:25:53;;;;;;;22.90;9.40;;;6.70;99.90;;;;;;5045933;28;20674;-89
2022/11/08 02:28:19;;;;;;;19.00;8.75;;;6.80;99.90;;;;;;5029732;28;20041;-89
2022/11/08 02:30:45;;;;;;;14.45;8.07;;;6.80;99.90;;;;;;5044800;28;20095;-89
2022/11/08 02:33:21;;;;;;;18.33;8.40;;;6.80;99.90;;;;;;5048711;28;20116;-88
2022/11/08 02:35:50;;;;;;;19.90;7.80;;;6.70;99.90;;;;;;5045684;28;20036;-89
2022/11/08 02:38:17;;;;;;;16.48;8.70;;;6.70;99.90;;;;;;5031985;28;20492;-89
2022/11/08 02:40:48;;;;;;;15.68;7.90;;;6.70;99.90;;;;;;5044666;28;20033;-89
2022/11/08 02:43:13;;;;;;;16.02;8.05;;;6.80;99.90;;;;;;5030370;28;20048;-89
2022/11/08 02:49:26;;;;;;;16.67;7.28;;;6.70;99.90;;;;;;5034023;28;20091;-89
2022/11/08 02:51:53;;;;;;;20.23;8.00;;;6.70;99.90;;;;;;5030684;28;20033;-89
2022/11/08 02:54:19;;;;;;;16.20;6.65;;;6.60;99.90;;;;;;5032254;28;20519;-89
2022/11/08 02:56:44;;;;;;;14.95;8.45;;;6.60;99.90;;;;;;5045185;28;20033;-89
2022/11/08 02:59:28;;;;;;;11.32;7.05;;;6.60;99.90;;;;;;5043949;28;20029;-89
2022/11/08 03:01:54;;;;;;;15.23;8.38;;;6.50;99.90;;;;;;5049329;28;20431;-88
2022/11/08 03:04:20;;;;;;;13.88;7.80;;;6.60;99.90;;;;;;5043748;28;20021;-89
2022/11/08 03:06:55;;;;;;;14.52;8.35;;;6.50;99.90;;;;;;5043636;28;20033;-89
2022/11/08 03:09:20;;;;;;;15.30;7.93;;;6.60;99.90;;;;;;5047189;28;20025;-88
2022/11/08 03:11:46;;;;;;;13.60;8.02;;;6.50;99.90;;;;;;5046482;28;20033;-89
2022/11/08 03:14:40;;;;;;;17.25;7.35;;;6.50;99.90;;;;;;5029836;28;20361;-89
2022/11/08 03:17:05;;;;;;;12.70;8.00;;;6.40;99.90;;;;;;5029365;28;20031;-89
2022/11/08 03:19:31;;;;;;;16.15;9.20;;;6.30;99.90;;;;;;5045682;28;20029;-89
2022/11/08 03:21:57;;;;;;;14.63;8.30;;;6.30;99.90;;;;;;5039205;28;20033;-89
2022/11/08 03:24:22;;;;;;;16.75;8.90;;;6.40;99.90;;;;;;5047343;28;20499;-89
2022/11/08 03:26:48;;;;;;;18.50;8.70;;;6.30;99.90;;;;;;5025787;28;20146;-90
2022/11/08 03:30:00;;;;;;;18.83;8.55;;;6.30;99.90;;;;;;5046218;28;20115;-89
2022/11/08 03:32:26;;;;;;;16.02;9.07;;;6.30;99.90;;;;;;5025216;28;20041;-89
2022/11/08 03:34:52;;;;;;;14.40;7.82;;;6.20;99.90;;;;;;5050516;28;20492;-89
2022/11/08 03:37:17;;;;;;;15.05;8.10;;;6.30;99.90;;;;;;5025858;28;20041;-88
2022/11/08 03:39:43;;;;;;;16.05;8.57;;;6.30;99.90;;;;;;5019436;28;20116;-89
2022/11/08 03:42:09;;;;;;;15.60;9.18;;;6.30;99.90;;;;;;5029744;28;20025;-89
2022/11/08 03:45:12;;;;;;;19.08;9.10;;;6.20;99.90;;;;;;5042753;28;20041;-88
2022/11/08 03:47:39;;;;;;;26.65;8.05;;;6.10;99.90;;;;;;5044930;28;20094;-89
2022/11/08 03:50:06;;;;;;;15.05;8.52;;;6.10;99.90;;;;;;5045252;28;20059;-89
2022/11/08 03:52:39;;;;;;;17.00;8.35;;;6.20;99.90;;;;;;5028044;28;20037;-89
2022/11/08 03:55:06;;;;;;;14.38;9.35;;;6.30;99.90;;;;;;5028549;28;20054;-89
2022/11/08 03:57:31;;;;;;;16.00;8.10;;;6.30;99.90;;;;;;5026509;28;20058;-88
2022/11/08 03:59:57;;;;;;;20.30;8.60;;;6.40;99.90;;;;;;5028247;28;20829;-89
2022/11/08 04:02:23;;;;;;;15.02;8.55;;;6.30;99.90;;;;;;5028638;28;20033;-89
2022/11/08 04:04:49;;;;;;;17.05;8.88;;;6.30;99.90;;;;;;5027083;28;20035;-88
2022/11/08 04:07:14;;;;;;;21.50;7.93;;;6.30;99.90;;;;;;5045850;28;20031;-87
2022/11/08 04:09:40;;;;;;;15.52;8.13;;;6.20;99.90;;;;;;5044173;28;20484;-87
2022/11/08 04:15:15;;;;;;;19.95;7.82;;;6.10;99.90;;;;;;5042146;28;20127;-88
2022/11/08 04:23:15;;;;;;;12.38;7.38;;;6.10;99.90;;;;;;5032645;28;20028;-87
2022/11/08 04:25:41;;;;;;;15.43;7.25;;;6.20;99.90;;;;;;5026251;28;20038;-87
2022/11/08 04:28:07;;;;;;;11.70;6.88;;;6.20;99.90;;;;;;5027961;28;20017;-87
2022/11/08 04:30:34;;;;;;;13.00;6.18;;;6.40;99.90;;;;;;5043008;28;20116;-88
2022/11/08 04:33:01;;;;;;;14.05;6.40;;;6.40;99.90;;;;;;5028066;28;20040;-87
2022/11/08 04:35:27;;;;;;;13.27;6.35;;;6.60;99.90;;;;;;5028489;28;20124;-87
2022/11/08 04:37:58;;;;;;;14.70;6.00;;;6.70;99.90;;;;;;5045858;28;20033;-88
2022/11/08 04:40:23;;;;;;;10.48;5.10;;;6.60;99.90;;;;;;5045055;28;20032;-87
2022/11/08 04:42:49;;;;;;;12.00;5.10;;;6.70;99.90;;;;;;5043897;28;20044;-87
2022/11/08 04:45:15;;;;;;;11.30;5.65;;;6.70;99.90;;;;;;5027942;28;20025;-87
2022/11/08 04:47:40;;;;;;;12.98;5.78;;;6.70;99.90;;;;;;5026108;28;20052;-87
2022/11/08 04:50:06;;;;;;;9.60;5.65;;;6.60;99.90;;;;;;5028052;28;20044;-87
2022/11/08 04:52:32;;;;;;;13.32;5.40;;;6.60;99.90;;;;;;5027213;28;20280;-88
2022/11/08 04:54:58;;;;;;;9.38;5.35;;;6.50;99.90;;;;;;5027689;28;20088;-87
2022/11/08 04:57:23;;;;;;;13.40;5.80;;;6.40;99.90;;;;;;5026216;28;20044;-88
2022/11/08 04:59:49;;;;;;;11.38;5.55;;;6.40;99.90;;;;;;5043619;28;20124;-87
2022/11/08 05:02:15;;;;;;;11.38;5.43;;;6.40;99.90;;;;;;5044840;28;20048;-87
2022/11/08 05:04:40;;;;;;;11.30;4.88;;;6.40;99.90;;;;;;5028261;28;20028;-88
2022/11/08 05:07:06;;;;;;;11.05;5.93;;;6.40;99.90;;;;;;5043970;28;20395;-88
2022/11/08 05:09:31;;;;;;;8.73;5.60;;;6.40;99.90;;;;;;5027761;28;20032;-88
2022/11/08 05:11:57;;;;;;;14.15;5.95;;;6.30;99.90;;;;;;5042881;28;20484;-88
2022/11/08 05:14:23;;;;;;;15.15;7.15;;;6.40;99.90;;;;;;5044398;28;20678;-89
2022/11/08 05:16:49;;;;;;;18.13;8.02;;;6.40;99.90;;;;;;5027612;28;20037;-89
2022/11/08 05:23:22;;;;;;;16.95;8.05;;;6.50;99.90;;;;;;5026995;28;20025;-88
2022/11/08 05:24:45;;;;;;;20.60;8.98;;;6.50;99.90;;;;;;5046790;28;20028;-88
2022/11/08 05:27:10;;;;;;;14.77;7.57;;;6.50;99.90;;;;;;5026032;28;20018;-89
2022/11/08 05:29:36;;;;;;;14.05;6.40;;;6.50;99.90;;;;;;5029523;28;20021;-87
2022/11/08 05:32:02;;;;;;;12.18;5.70;;;6.40;99.90;;;;;;5023842;28;20032;-88
2022/11/08 05:34:28;;;;;;;16.30;5.45;;;6.40;99.90;;;;;;5048083;28;20063;-88
2022/11/08 05:36:54;;;;;;;11.25;4.85;;;6.40;99.90;;;;;;5023925;28;20076;-87
2022/11/08 05:39:19;;;;;;;11.20;4.70;;;6.50;99.90;;;;;;5039603;28;20061;-88
2022/11/08 05:41:46;;;;;;;13.55;4.60;;;6.70;99.90;;;;;;5045727;28;20067;-88
2022/11/08 05:44:12;;;;;;;14.02;4.45;;;6.80;99.90;;;;;;5031858;28;20034;-88
2022/11/08 05:50:25;;;;;;;11.02;5.82;;;6.70;99.90;;;;;;5031898;28;20063;-89
2022/11/08 05:52:53;;;;;;;12.60;4.82;;;6.60;99.90;;;;;;5035029;28;20119;-89
2022/11/08 05:55:39;;;;;;;10.32;5.72;;;6.50;99.90;;;;;;5048629;28;20040;-89
2022/11/08 05:58:05;;;;;;;14.45;5.03;;;6.40;99.90;;;;;;5022805;28;20059;-89
2022/11/08 06:00:31;;;;;;;10.23;4.60;;;6.40;99.90;;;;;;5030906;28;20025;-89
2022/11/08 06:02:56;;;;;;;9.10;5.35;;;6.30;99.90;;;;;;5027200;28;20036;-89
2022/11/08 06:05:22;;;;;;;10.45;5.38;;;6.20;99.90;;;;;;5044193;28;20022;-89
2022/11/08 06:07:48;;;;;;;14.50;6.00;;;6.20;99.90;;;;;;5049237;28;20124;-89
2022/11/08 06:10:13;;;;;;;10.82;5.32;;;6.30;99.90;;;;;;5031287;28;20025;-89
2022/11/08 06:12:39;;;;;;;9.63;4.30;;;6.30;99.90;;;;;;5034046;28;20127;-89
2022/11/08 06:15:06;;;;;;;13.82;5.03;;;6.40;99.90;;;;;;5043357;28;20036;-89
2022/11/08 06:17:32;;;;;;;11.63;4.95;;;6.50;99.90;;;;;;5068466;28;20033;-89
2022/11/08 06:19:58;;;;;;;10.88;5.68;;;6.50;99.90;;;;;;5043805;28;20021;-89
2022/11/08 06:22:24;;;;;;;10.20;4.78;;;6.50;99.90;;;;;;5043744;28;20083;-89
2022/11/08 06:24:49;;;;;;;12.18;5.13;;;6.50;99.90;;;;;;5049106;28;20029;-89
2022/11/08 06:27:15;;;;;;;7.88;4.47;;;6.50;99.90;;;;;;5022227;28;20029;-88
2022/11/08 06:29:41;;;;;;;9.95;5.25;;;6.40;99.90;;;;;;5026702;28;20025;-87
2022/11/08 06:32:09;;;;;;;10.52;5.65;;;6.40;99.90;;;;;;5032563;28;20022;-87
2022/11/08 06:34:34;;;;;;;10.57;5.05;;;6.40;99.90;;;;;;5034297;28;20045;-88
2022/11/08 06:37:00;;;;;;;9.88;5.57;;;6.30;99.90;;;;;;5025619;28;20047;-87
2022/11/08 06:39:26;;;;;;;10.32;5.47;;;6.30;99.90;;;;;;5028530;28;20033;-87
2022/11/08 06:41:52;;;;;;;11.93;5.90;;;6.30;99.90;;;;;;5038429;28;20040;-87
2022/11/08 06:44:18;;;;;;;11.20;5.72;;;6.30;99.90;;;;;;5042837;28;20025;-88
2022/11/08 06:46:44;;;;;;;11.65;6.15;;;6.30;99.90;;;;;;5026438;28;20017;-87
2022/11/08 06:49:09;;;;;;;12.75;6.32;;;6.20;99.90;;;;;;5028175;28;20456;-87
2022/11/08 06:51:35;;;;;;;11.40;5.88;;;6.20;99.90;;;;;;5026500;28;20852;-87
2022/11/08 06:54:02;;;;;;;8.52;5.40;;;6.10;99.90;;;;;;5027804;28;20009;-87
2022/11/08 06:56:28;;;;;;;10.13;5.00;;;6.20;99.90;;;;;;5019711;28;20030;-87
2022/11/08 06:58:54;;;;;;;10.77;5.00;;;6.20;99.90;;;;;;5043100;28;20067;-87
2022/11/08 07:01:20;;;;;;;7.65;4.75;;;6.30;99.90;;;;;;5044407;28;20061;-87
2022/11/08 07:03:45;;;;;;;10.48;5.97;;;6.30;99.90;;;;;;5027409;28;20514;-87
2022/11/08 07:06:11;;;;;;;6.43;4.47;;;6.30;99.90;;;;;;5041273;28;20503;-88
2022/11/08 07:08:37;;;;;;;11.90;4.45;;;6.30;99.90;;;;;;5034492;28;20029;-86
2022/11/08 07:11:03;;;;;;;11.80;5.22;;;6.40;99.90;;;;;;5035963;28;20385;-87
2022/11/08 07:13:29;;;;;;;7.15;4.68;;;6.40;99.90;;;;;;5025282;28;20026;-88
2022/11/08 07:15:59;;;;;;;11.05;5.47;;;6.40;99.90;;;;;;5044160;28;20499;-87
2022/11/08 07:18:25;;;;;;;11.93;5.47;;;6.50;99.90;;;;;;5042994;28;20040;-88
2022/11/08 07:20:51;;;;;;;11.77;5.05;;;6.50;99.90;;;;;;5028519;28;20021;-87
2022/11/08 07:23:17;;;;;;;8.00;4.97;;;6.60;99.90;;;;;;5044525;28;20028;-87
2022/11/08 07:25:44;;;;;;;15.63;4.90;;;6.70;99.90;;;;;;5027035;28;20044;-87
2022/11/08 07:28:16;;;;;;;8.75;4.93;;;6.80;99.90;;;;;;5039906;28;20036;-88
2022/11/08 07:30:42;;;;;;;12.00;6.78;;;6.90;99.90;;;;;;5026270;28;20502;-88
2022/11/08 07:33:08;;;;;;;17.23;9.88;;;7.00;99.90;;;;;;5024745;28;20155;-88
2022/11/08 07:35:34;;;;;;;12.18;7.60;;;7.10;99.90;;;;;;5030805;28;20119;-88
2022/11/08 07:37:59;;;;;;;10.85;5.05;;;7.20;99.90;;;;;;5029148;28;20025;-88
2022/11/08 07:40:25;;;;;;;8.73;4.68;;;7.30;99.90;;;;;;5030220;28;20495;-88
2022/11/08 07:42:51;;;;;;;6.78;4.25;;;7.40;99.90;;;;;;5024976;28;20037;-88
2022/11/08 07:45:17;;;;;;;7.70;4.30;;;7.50;99.90;;;;;;5046430;28;20075;-87
2022/11/08 07:47:43;;;;;;;11.13;4.30;;;7.50;99.90;;;;;;5026616;28;20468;-87
2022/11/08 07:50:09;;;;;;;7.15;4.05;;;7.60;99.90;;;;;;5041119;28;20022;-88
2022/11/08 07:52:35;;;;;;;7.75;3.80;;;7.60;99.90;;;;;;5046556;28;20036;-88
2022/11/08 07:55:00;;;;;;;10.57;3.97;;;7.60;99.90;;;;;;5024866;28;20538;-88
2022/11/08 07:57:26;;;;;;;6.15;4.05;;;7.60;99.90;;;;;;5027698;28;20028;-88
2022/11/08 07:59:52;;;;;;;9.88;3.65;;;7.60;99.90;;;;;;5024805;28;20032;-88
2022/11/08 08:02:17;;;;;;;8.43;4.07;;;7.70;99.90;;;;;;5026920;28;20021;-88
2022/11/08 08:04:43;;;;;;;10.20;4.05;;;7.70;99.90;;;;;;5025879;28;20494;-88
2022/11/08 08:07:11;;;;;;;8.02;4.35;;;7.70;99.90;;;;;;5043499;28;20043;-88
2022/11/08 08:09:36;;;;;;;7.68;4.82;;;7.80;99.90;;;;;;5026702;28;20116;-88
2022/11/08 08:12:02;;;;;;;9.40;4.35;;;7.80;99.90;;;;;;5044280;28;20053;-88
2022/11/08 08:14:28;;;;;;;6.70;4.00;;;7.80;99.90;;;;;;5044230;28;20040;-88
2022/11/08 08:17:12;;;;;;;10.45;4.20;;;7.80;99.90;;;;;;5026294;28;20028;-86
2022/11/08 08:19:37;;;;;;;9.95;4.03;;;7.80;99.90;;;;;;5026388;28;20037;-87
2022/11/08 08:22:03;;;;;;;7.88;3.88;;;7.80;99.90;;;;;;5040115;28;20048;-87
2022/11/08 08:24:29;;;;;;;6.70;4.10;;;7.80;99.90;;;;;;5029102;28;20115;-88
2022/11/08 08:26:55;;;;;;;9.88;4.25;;;7.90;99.90;;;;;;5023416;28;20025;-88
2022/11/08 08:29:20;;;;;;;6.53;3.50;;;7.90;99.90;;;;;;5044530;28;20492;-87
2022/11/08 08:31:46;;;;;;;9.43;3.60;;;8.00;99.90;;;;;;5024708;28;20561;-88
2022/11/08 08:34:14;;;;;;;7.47;3.42;;;8.20;99.90;;;;;;5028826;28;20029;-87
2022/11/08 08:36:40;;;;;;;10.98;3.65;;;8.30;99.90;;;;;;5025842;28;20640;-87
2022/11/08 08:39:06;;;;;;;7.50;3.22;;;8.40;99.90;;;;;;5026615;28;20030;-88
2022/11/08 08:41:32;;;;;;;5.10;3.35;;;8.50;99.90;;;;;;5046065;28;20040;-88
2022/11/08 08:44:29;;;;;;;8.68;3.60;;;8.60;99.90;;;;;;5027819;28;20033;-87
2022/11/08 08:46:54;;;;;;;5.75;3.47;;;8.70;99.90;;;;;;5047404;28;20055;-87
2022/11/08 08:49:20;;;;;;;8.25;3.70;;;8.70;99.90;;;;;;5024833;28;20029;-88
2022/11/08 08:51:46;;;;;;;6.88;3.45;;;8.80;99.90;;;;;;5031679;28;20025;-88
2022/11/08 08:54:13;;;;;;;5.07;3.35;;;8.80;99.90;;;;;;5026466;28;20393;-88
2022/11/08 08:56:39;;;;;;;6.72;3.80;;;8.90;99.90;;;;;;5024439;28;20038;-88
2022/11/08 08:59:05;;;;;;;4.45;3.05;;;8.90;99.90;;;;;;5028646;28;20544;-88
2022/11/08 09:01:31;;;;;;;9.20;3.60;;;9.00;99.90;;;;;;5040077;28;20036;-88
2022/11/08 09:03:57;;;;;;;4.65;3.05;;;9.00;99.90;;;;;;5031595;28;20473;-88
2022/11/08 09:06:23;;;;;;;5.78;3.58;;;9.10;99.90;;;;;;5042610;28;20036;-88
2022/11/08 09:08:49;;;;;;;5.85;3.33;;;9.30;99.90;;;;;;5041912;28;20037;-88
2022/11/08 09:11:15;;;;;;;5.63;3.35;;;9.40;99.90;;;;;;5026778;28;20029;-88
2022/11/08 09:13:40;;;;;;;6.60;3.33;;;9.40;99.90;;;;;;5041875;28;20496;-88
2022/11/08 09:16:09;;;;;;;6.15;3.17;;;9.30;99.90;;;;;;5021357;28;20034;-88
2022/11/08 09:18:35;;;;;;;9.35;3.00;;;9.40;99.90;;;;;;5046067;28;20091;-88
2022/11/08 09:21:03;;;;;;;8.13;3.15;;;9.50;99.90;;;;;;5022974;28;20033;-88
2022/11/08 09:23:29;;;;;;;11.40;3.05;;;9.50;99.90;;;;;;5045555;28;20033;-87
2022/11/08 09:25:59;;;;;;;6.22;3.00;;;9.50;99.90;;;;;;5026785;28;20055;-88
2022/11/08 09:28:25;;;;;;;4.82;2.70;;;9.60;99.90;;;;;;5050380;28;20043;-88
2022/11/08 09:30:50;;;;;;;4.68;2.70;;;9.70;99.90;;;;;;5044275;28;20029;-88
2022/11/08 09:33:16;;;;;;;6.20;2.92;;;9.90;99.90;;;;;;5044300;28;20389;-88
2022/11/08 09:35:42;;;;;;;5.47;3.20;;;10.10;99.90;;;;;;5049209;28;20494;-87
2022/11/08 09:38:08;;;;;;;5.03;2.70;;;10.30;99.90;;;;;;5026761;28;20176;-87
2022/11/08 09:44:38;;;;;;;7.50;3.30;;;10.80;99.90;;;;;;5025081;28;20080;-88
2022/11/08 09:47:15;;;;;;;12.63;5.47;;;11.00;99.90;;;;;;5027828;28;20040;-87
2022/11/08 09:49:47;;;;;;;6.45;3.17;;;11.00;99.90;;;;;;5044695;28;20041;-88
2022/11/08 09:52:23;;;;;;;7.40;2.88;;;11.10;99.90;;;;;;5045530;28;20116;-87
2022/11/08 09:54:52;;;;;;;7.10;3.45;;;10.90;99.90;;;;;;5043957;28;20100;-87
2022/11/08 09:57:39;;;;;;;4.85;2.30;;;10.70;99.90;;;;;;5031212;28;20032;-87
2022/11/08 10:00:06;;;;;;;4.30;2.75;;;10.70;99.90;;;;;;5040515;28;20036;-88
2022/11/08 10:03:09;;;;;;;4.25;2.53;;;10.70;99.90;;;;;;5050557;28;20036;-87
2022/11/08 10:05:42;;;;;;;3.65;2.63;;;10.80;99.90;;;;;;5023764;28;20065;-87
2022/11/08 10:08:10;;;;;;;5.40;3.10;;;10.90;99.90;;;;;;5048413;28;20022;-87
2022/11/08 10:10:56;;;;;;;3.63;2.38;;;11.20;99.90;;;;;;5042759;28;20037;-88
2022/11/08 10:14:07;;;;;;;10.65;2.78;;;11.60;99.90;;;;;;5045802;28;20029;-88
2022/11/08 10:16:58;;;;;;;5.55;2.10;;;12.00;99.90;;;;;;5010948;28;20030;-88
2022/11/08 10:19:57;;;;;;;10.50;3.00;;;12.40;99.90;;;;;;5016082;28;20492;-88
2022/11/08 10:23:09;;;;;;;6.63;2.75;;;12.60;99.90;;;;;;5012747;28;20053;-88
2022/11/08 10:25:45;;;;;;;3.50;2.50;;;13.00;99.90;;;;;;5025958;28;20041;-86
2022/11/08 10:28:17;;;;;;;3.97;2.45;;;13.00;99.90;;;;;;5011928;28;20628;-88
2022/11/08 10:30:48;;;;;;;5.10;2.35;;;12.70;99.90;;;;;;5014479;28;20035;-88
2022/11/08 10:33:28;;;;;;;6.53;2.50;;;12.60;99.90;;;;;;5016837;28;20061;-88
2022/11/08 10:36:13;;;;;;;6.38;2.78;;;12.50;99.90;;;;;;5033619;28;20041;-87
2022/11/08 10:38:54;;;;;;;6.80;2.55;;;12.30;99.90;;;;;;5028958;28;20038;-89
2022/11/08 10:41:28;;;;;;;5.13;2.70;;;12.20;99.90;;;;;;5027233;28;20029;-88
2022/11/08 10:44:14;;;;;;;12.52;4.28;;;12.20;99.90;;;;;;5030417;28;20041;-88
2022/11/08 10:46:44;;;;;;;7.60;3.20;;;12.20;99.90;;;;;;5016725;28;20547;-88
2022/11/08 10:49:36;;;;;;;6.30;2.25;;;12.20;99.90;;;;;;5030894;28;20025;-88
2022/11/08 10:52:10;;;;;;;6.32;1.77;;;12.20;99.90;;;;;;5014236;28;20639;-88
2022/11/08 10:54:57;;;;;;;2.08;1.30;;;12.30;99.90;;;;;;5014218;28;20098;-88
2022/11/08 10:57:43;;;;;;;2.22;1.60;;;12.40;99.90;;;;;;5028319;28;20805;-87
2022/11/08 11:00:22;;;;;;;8.13;2.25;;;12.50;99.90;;;;;;5028258;28;20108;-88
2022/11/08 11:02:51;;;;;;;10.10;1.98;;;12.50;99.90;;;;;;5028383;28;20753;-88
2022/11/08 11:05:17;;;;;;;4.68;2.00;;;12.40;99.90;;;;;;5023446;28;20065;-88
2022/11/08 11:07:51;;;;;;;3.35;1.83;;;12.40;99.90;;;;;;5024316;28;20754;-88
2022/11/08 11:10:27;;;;;;;2.60;2.03;;;12.40;99.90;;;;;;5014218;28;20033;-88
2022/11/08 11:13:08;;;;;;;9.88;2.53;;;12.60;99.90;;;;;;5025660;28;20034;-88
2022/11/08 11:15:36;;;;;;;;;;;12.50;99.90;;;;;;5011570;28;20498;-87
2022/11/08 11:18:03;;;;;;;3.60;2.10;;;12.40;99.90;;;;;;5032369;28;20523;-87
2022/11/08 11:20:30;;;;;;;4.22;2.47;;;12.40;99.90;;;;;;5030960;28;20040;-87
2022/11/08 11:22:58;;;;;;;5.78;2.38;;;12.30;99.90;;;;;;5012477;28;20060;-88
2022/11/08 11:25:24;;;;;;;5.40;2.30;;;12.40;99.90;;;;;;5028420;28;20040;-88
2022/11/08 11:27:58;;;;;;;4.65;2.30;;;12.60;99.90;;;;;;5015967;28;20025;-88
2022/11/08 11:30:32;;;;;;;3.95;2.08;;;13.10;99.90;;;;;;5017856;28;20030;-87
2022/11/08 11:33:04;;;;;;;3.15;2.13;;;13.70;99.90;;;;;;5042587;28;20032;-88
2022/11/08 11:35:48;;;;;;;3.78;2.00;;;13.90;99.90;;;;;;5044941;28;20086;-88
2022/11/08 11:38:39;;;;;;;2.75;1.60;;;14.00;99.90;;;;;;5023443;28;20029;-87
2022/11/08 11:41:15;;;;;;;5.27;2.30;;;13.80;99.90;;;;;;5019837;28;20480;-87
2022/11/08 11:44:17;;;;;;;5.07;1.88;;;13.80;99.90;;;;;;5047942;28;20341;-87
2022/11/08 11:46:55;;;;;;;;;;;13.70;99.90;;;;;;5023664;28;20033;-87
2022/11/08 11:49:21;;;;;;;2.53;1.60;;;13.80;99.90;;;;;;5026407;28;19995;-88
2022/11/08 11:51:50;;;;;;;6.55;1.90;;;13.80;99.90;;;;;;5042497;28;20500;-87
2022/11/08 11:55:02;;;;;;;5.22;1.77;;;13.80;99.90;;;;;;5043656;28;20039;-86
2022/11/08 11:57:47;;;;;;;3.17;1.80;;;13.60;99.90;;;;;;5043629;28;20033;-87
2022/11/08 12:00:16;;;;;;;6.72;2.08;;;13.60;99.90;;;;;;5039488;28;20033;-87
2022/11/08 12:03:13;;;;;;;2.35;1.52;;;13.60;99.90;;;;;;5042140;28;20111;-88
2022/11/08 12:05:58;;;;;;;3.00;1.60;;;13.60;99.90;;;;;;5022146;28;20025;-87
2022/11/08 12:08:36;;;;;;;2.92;1.70;;;13.60;99.90;;;;;;5025783;28;20811;-87
2022/11/08 12:11:23;;;;;;;2.53;1.40;;;13.70;99.90;;;;;;5012980;28;20115;-87
2022/11/08 12:14:14;;;;;;;4.60;1.80;;;13.70;99.90;;;;;;5024334;28;20030;-88
2022/11/08 12:16:45;;;;;;;;;;;13.90;99.90;;;;;;5043648;28;20036;-87
2022/11/08 12:19:48;;;;;;;2.70;1.50;;;14.00;99.90;;;;;;5043142;28;19915;-87
2022/11/08 12:22:41;;;;;;;1.55;1.40;;;14.10;99.90;;;;;;5039254;28;20041;-87
2022/11/08 12:25:22;;;;;;;5.55;1.80;;;14.30;99.90;;;;;;5018605;28;20061;-87
2022/11/08 12:28:23;;;;;;;4.60;1.98;;;14.40;99.90;;;;;;5041601;28;20029;-87
2022/11/08 12:31:04;;;;;;;4.15;1.85;;;14.30;99.90;;;;;;5024284;28;20057;-87
2022/11/08 12:33:45;;;;;;;4.03;2.00;;;14.30;99.90;;;;;;5043318;28;20562;-87
2022/11/08 12:36:44;;;;;;;3.13;2.00;;;14.30;99.90;;;;;;5053354;28;20088;-87
2022/11/08 12:39:21;;;;;;;4.55;2.22;;;14.40;99.90;;;;;;5009755;28;20095;-87
2022/11/08 12:41:56;;;;;;;2.40;1.63;;;14.60;99.90;;;;;;5030152;28;20406;-87
2022/11/08 12:44:34;;;;;;;4.40;1.75;;;14.80;99.90;;;;;;5031903;28;20030;-87
2022/11/08 12:47:03;;;;;;;5.30;2.20;;;14.80;99.90;;;;;;5043992;28;20124;-88
2022/11/08 12:49:41;;;;;;;3.42;1.85;;;14.80;99.90;;;;;;5032028;28;20022;-87
2022/11/08 12:52:30;;;;;;;4.22;2.08;;;14.90;99.90;;;;;;5027238;28;20033;-87
2022/11/08 12:55:03;;;;;;;1.98;1.77;;;14.90;99.90;;;;;;5026365;28;20079;-87
2022/11/08 12:57:31;;;;;;;3.65;2.30;;;14.80;99.90;;;;;;5032711;28;20124;-86
2022/11/08 13:00:02;;;;;;;4.78;1.92;;;14.80;99.90;;;;;;5032664;28;20771;-88
2022/11/08 13:02:32;;;;;;;10.23;2.13;;;14.70;99.90;;;;;;5007191;28;20038;-87
2022/11/08 13:05:23;;;;;;;6.25;2.40;;;14.60;99.90;;;;;;5033672;28;20432;-87
2022/11/08 13:08:12;;;;;;;14.05;2.92;;;14.50;99.90;;;;;;5027997;28;20448;-88
2022/11/08 13:10:52;;;;;;;5.38;2.42;;;14.50;99.90;;;;;;5017845;28;20083;-87
2022/11/08 13:13:17;;;;;;;4.28;1.60;;;14.40;99.90;;;;;;5017808;28;20056;-87
2022/11/08 13:16:05;;;;;;;4.47;1.80;;;14.40;99.90;;;;;;5017382;28;20033;-87
2022/11/08 13:18:42;;;;;;;3.83;2.08;;;14.50;99.90;;;;;;5036041;28;20033;-86
2022/11/08 13:21:26;;;;;;;3.75;1.70;;;14.50;99.90;;;;;;5031638;28;20033;-87
2022/11/08 13:24:01;;;;;;;5.70;2.22;;;14.40;99.90;;;;;;5049111;28;20036;-87
2022/11/08 13:26:40;;;;;;;3.17;1.92;;;14.40;99.90;;;;;;5034839;28;20036;-87
2022/11/08 13:30:02;;;;;;;5.55;1.85;;;14.30;99.90;;;;;;5034883;28;20384;-87
2022/11/08 13:32:41;;;;;;;4.22;2.03;;;14.00;99.90;;;;;;5028908;28;20079;-87
2022/11/08 13:35:40;;;;;;;3.67;2.33;;;13.80;99.90;;;;;;5023880;28;20052;-86
2022/11/08 13:38:21;;;;;;;7.00;3.42;;;13.60;99.90;;;;;;5048837;28;20123;-87
2022/11/08 13:40:50;;;;;;;7.55;3.83;;;13.40;99.90;;;;;;5033698;28;20033;-87
2022/11/08 13:43:15;;;;;;;8.63;4.35;;;13.30;99.90;;;;;;5014478;28;20021;-87
2022/11/08 13:46:18;;;;;;;8.48;3.65;;;13.20;99.90;;;;;;5033355;28;20032;-86